Time;durP1;ratioP1;P1;durP2;ratioP2;P2;SDS_P1;SDS_P2;PMS_P1;PMS_P2;Temp;Humidity;BMP_temperature;BMP_pressure;BME280_temperature;BME280_humidity;BME280_pressure;Samples;Min_cycle;Max_cycle;Signal;HPM_P1;HPM_P2
2021/10/27 00:00:20;;;;;;;10.00;7.03;;;11.80;99.90;;;11.34;100.00;102070.78;4140984;28;20566;-78
2021/10/27 00:02:21;;;;;;;12.25;8.25;;;11.80;99.90;;;11.30;100.00;102077.28;4160526;28;20564;-78
2021/10/27 00:04:22;;;;;;;17.35;9.07;;;11.80;99.90;;;11.30;100.00;102069.34;4170934;28;20025;-77
2021/10/27 00:06:23;;;;;;;12.32;6.97;;;11.80;99.90;;;11.33;100.00;102079.66;4169906;28;20085;-77
2021/10/27 00:08:24;;;;;;;8.35;6.50;;;11.80;99.90;;;11.27;100.00;102067.81;4169207;28;20013;-78
2021/10/27 00:10:25;;;;;;;13.25;6.97;;;11.70;99.90;;;11.26;100.00;102060.84;4171177;28;20036;-78
2021/10/27 00:12:26;;;;;;;7.05;5.82;;;11.80;99.90;;;11.25;100.00;102060.97;4170721;28;20025;-77
2021/10/27 00:14:27;;;;;;;7.60;6.47;;;11.80;99.90;;;11.24;100.00;102056.66;4170959;28;20440;-78
2021/10/27 00:16:30;;;;;;;8.05;6.20;;;11.80;99.90;;;11.28;100.00;102058.94;4170666;28;20055;-77
2021/10/27 00:18:31;;;;;;;16.08;6.68;;;11.70;99.90;;;11.18;100.00;102052.72;4169598;28;20481;-77
2021/10/27 00:20:32;;;;;;;9.68;6.45;;;11.80;99.90;;;11.28;100.00;102052.78;4163114;28;20030;-77
2021/10/27 00:22:34;;;;;;;13.95;7.13;;;11.80;99.90;;;11.40;100.00;102051.78;4169465;28;20029;-77
2021/10/27 00:24:35;;;;;;;9.35;6.68;;;11.80;99.90;;;11.31;100.00;102050.75;4167965;28;20044;-77
2021/10/27 00:26:36;;;;;;;7.35;6.28;;;11.80;99.90;;;11.30;100.00;102054.34;4170703;28;20040;-77
2021/10/27 00:28:37;;;;;;;13.27;6.70;;;11.80;99.90;;;11.21;100.00;102048.97;4170432;28;20034;-77
2021/10/27 00:30:38;;;;;;;16.38;6.43;;;11.80;99.90;;;11.20;100.00;102044.69;4170597;28;20091;-77
2021/10/27 00:32:39;;;;;;;11.98;5.93;;;11.70;99.90;;;11.21;100.00;102048.97;4169263;28;20029;-77
2021/10/27 00:34:40;;;;;;;9.40;6.15;;;11.80;99.90;;;11.22;100.00;102045.38;4158484;28;20104;-78
2021/10/27 00:36:40;;;;;;;7.40;6.68;;;11.70;99.90;;;11.22;100.00;102055.94;4170588;28;20021;-78
2021/10/27 00:38:42;;;;;;;6.85;5.95;;;11.70;99.90;;;11.25;100.00;102059.19;4170397;28;20032;-77
2021/10/27 00:40:43;;;;;;;14.07;6.57;;;11.80;99.90;;;11.27;100.00;102051.13;4169057;28;20420;-77
2021/10/27 00:42:44;;;;;;;13.23;6.03;;;11.80;99.90;;;11.24;100.00;102046.94;4159418;28;20065;-77
2021/10/27 00:44:45;;;;;;;7.10;5.32;;;11.80;99.90;;;11.25;100.00;102050.41;4170345;28;20032;-77
2021/10/27 00:46:46;;;;;;;8.13;5.55;;;11.80;99.90;;;11.26;100.00;102054.75;4170349;28;20029;-77
2021/10/27 00:48:49;;;;;;;6.70;6.00;;;11.80;99.90;;;11.21;100.00;102060.38;4170189;28;20508;-77
2021/10/27 00:50:50;;;;;;;6.90;6.20;;;11.70;99.90;;;11.28;100.00;102047.50;4170341;28;20037;-78
2021/10/27 00:52:51;;;;;;;16.55;6.88;;;11.80;99.90;;;11.32;100.00;102054.22;4169969;28;20045;-77
2021/10/27 00:54:52;;;;;;;11.52;5.97;;;11.80;99.90;;;11.28;100.00;102051.00;4170150;28;20029;-77
2021/10/27 00:56:55;;;;;;;6.55;5.95;;;11.80;99.90;;;11.30;100.00;102056.13;4168856;28;20025;-77
2021/10/27 00:58:56;;;;;;;6.93;5.82;;;11.80;99.90;;;11.24;100.00;102048.72;4158175;28;20056;-78
2021/10/27 01:00:57;;;;;;;6.28;5.25;;;11.80;99.90;;;11.24;100.00;102054.84;4168945;28;20025;-77
2021/10/27 01:02:58;;;;;;;5.85;5.25;;;11.80;99.90;;;11.21;100.00;102051.63;4164444;28;20032;-77
2021/10/27 01:04:59;;;;;;;7.32;5.70;;;11.80;99.90;;;11.25;100.00;102045.13;4169913;28;20025;-77
2021/10/27 01:07:00;;;;;;;20.02;7.03;;;11.80;99.90;;;11.25;100.00;102055.69;4168873;28;20516;-77
2021/10/27 01:09:02;;;;;;;9.25;5.85;;;11.80;99.90;;;11.26;100.00;102050.28;4163079;28;20083;-78
2021/10/27 01:11:04;;;;;;;22.08;6.70;;;11.80;99.90;;;11.25;100.00;102045.13;4168796;28;20025;-78
2021/10/27 01:13:05;;;;;;;14.05;6.57;;;11.90;99.90;;;11.29;100.00;102049.19;4167942;28;20029;-77
2021/10/27 01:15:07;;;;;;;16.77;7.22;;;11.80;99.90;;;11.31;100.00;102050.75;4169976;28;20026;-77
2021/10/27 01:17:11;;;;;;;14.20;6.70;;;11.90;99.90;;;11.37;100.00;102052.03;4169847;28;20519;-78
2021/10/27 01:19:12;;;;;;;7.78;5.85;;;11.90;99.90;;;11.34;100.00;102044.34;4169822;28;20112;-77
2021/10/27 01:21:13;;;;;;;6.35;5.38;;;11.90;99.90;;;11.41;100.00;102061.38;4169688;28;20025;-77
2021/10/27 01:23:14;;;;;;;13.05;6.32;;;12.00;99.90;;;11.37;100.00;102049.38;4169761;28;20026;-78
2021/10/27 01:25:15;;;;;;;10.55;6.97;;;11.90;99.90;;;11.42;100.00;102040.09;4168718;28;20171;-77
2021/10/27 01:27:16;;;;;;;9.57;6.78;;;12.00;99.90;;;11.43;100.00;102033.00;4164692;28;20501;-77
2021/10/27 01:29:17;;;;;;;10.35;6.38;;;12.00;99.90;;;11.54;100.00;102038.22;4169795;28;20166;-78
2021/10/27 01:31:18;;;;;;;10.85;7.05;;;12.00;99.90;;;11.49;100.00;102011.34;4169694;28;20033;-77
2021/10/27 01:33:20;;;;;;;10.57;6.72;;;12.00;99.90;;;11.55;100.00;102026.69;4169491;28;20037;-77
2021/10/27 01:35:21;;;;;;;15.98;7.40;;;12.10;99.90;;;11.58;100.00;102013.22;4169724;28;20105;-77
2021/10/27 01:37:23;;;;;;;11.45;8.00;;;12.10;99.90;;;11.67;100.00;102030.94;4167401;28;20029;-77
2021/10/27 01:39:24;;;;;;;11.65;6.65;;;12.10;99.90;;;11.59;100.00;102028.91;4168308;28;20117;-77
2021/10/27 01:41:27;;;;;;;10.80;7.82;;;12.10;99.90;;;11.62;100.00;102014.59;4161282;28;20116;-78
2021/10/27 01:43:29;;;;;;;13.80;7.78;;;12.10;99.90;;;11.62;100.00;102010.16;4169389;28;20571;-77
2021/10/27 01:45:31;;;;;;;10.00;6.60;;;12.10;99.90;;;11.60;100.00;102020.03;4169304;28;20029;-77
2021/10/27 01:47:33;;;;;;;10.32;6.95;;;12.10;99.90;;;11.59;100.00;102023.63;4169433;28;20084;-77
2021/10/27 01:49:34;;;;;;;10.80;6.15;;;12.10;99.90;;;11.60;100.00;102013.91;4169346;28;20029;-77
2021/10/27 01:51:36;;;;;;;8.50;6.38;;;12.20;99.90;;;11.69;100.00;102018.41;4169044;28;20053;-77
2021/10/27 01:53:37;;;;;;;13.15;6.18;;;12.20;99.90;;;11.65;100.00;102011.69;4169100;28;20155;-77
2021/10/27 01:55:40;;;;;;;8.35;5.70;;;12.20;99.90;;;11.59;100.00;102017.50;4168123;28;20121;-77
2021/10/27 01:57:41;;;;;;;6.78;5.43;;;12.20;99.90;;;11.58;100.00;102005.28;4167800;28;20028;-78
2021/10/27 01:59:42;;;;;;;8.13;5.93;;;12.20;99.90;;;11.72;100.00;102007.59;4169191;28;20052;-77
2021/10/27 02:01:43;;;;;;;6.05;5.05;;;12.20;99.90;;;11.73;100.00;102006.66;4167573;28;20104;-77
2021/10/27 02:03:44;;;;;;;9.55;5.95;;;12.20;99.90;;;11.71;100.00;102005.09;4172230;28;20507;-77
2021/10/27 02:05:45;;;;;;;6.00;4.55;;;12.20;99.90;;;11.78;100.00;102012.38;4160533;28;20108;-77
2021/10/27 02:07:46;;;;;;;6.85;4.45;;;12.30;99.90;;;11.60;100.00;101998.06;4167821;28;20025;-77
2021/10/27 02:09:47;;;;;;;9.18;4.68;;;12.20;99.90;;;11.56;100.00;102000.13;4151435;28;20049;-77
2021/10/27 02:11:49;;;;;;;4.75;4.03;;;12.20;99.90;;;11.54;100.00;101996.78;4169031;28;20042;-77
2021/10/27 02:13:51;;;;;;;11.98;4.90;;;12.20;99.90;;;11.58;100.00;101997.34;4168758;28;20027;-77
2021/10/27 02:15:52;;;;;;;6.93;4.78;;;12.10;99.90;;;11.60;100.00;101998.06;4168901;28;20025;-78
2021/10/27 02:17:54;;;;;;;7.10;4.63;;;12.20;99.90;;;11.66;100.00;101997.53;4167773;28;20026;-77
2021/10/27 02:19:56;;;;;;;7.95;4.57;;;12.20;99.90;;;11.58;100.00;101982.34;4156572;28;20061;-77
2021/10/27 02:21:57;;;;;;;16.35;4.93;;;12.20;99.90;;;11.54;100.00;101986.22;4168901;28;20492;-78
2021/10/27 02:23:58;;;;;;;8.35;5.15;;;12.20;99.90;;;11.65;100.00;101990.56;4167650;28;20035;-78
2021/10/27 02:25:59;;;;;;;8.63;4.80;;;12.20;99.90;;;11.59;100.00;101985.78;4166108;28;20488;-78
2021/10/27 02:28:01;;;;;;;13.23;5.15;;;12.20;99.90;;;11.56;100.00;101986.06;4168506;28;20030;-78
2021/10/27 02:30:02;;;;;;;25.65;6.90;;;12.20;99.90;;;11.49;100.00;101964.63;4168775;28;20057;-78
2021/10/27 02:32:04;;;;;;;13.02;6.47;;;12.10;99.90;;;11.53;100.00;101967.81;4168611;28;20029;-78
2021/10/27 02:34:05;;;;;;;8.50;6.13;;;12.20;99.90;;;11.68;100.00;101969.16;4168960;28;20398;-78
2021/10/27 02:36:06;;;;;;;11.75;6.63;;;12.20;99.90;;;11.62;100.00;101964.38;4168766;28;20040;-77
2021/10/27 02:38:07;;;;;;;17.08;7.38;;;12.20;99.90;;;11.65;100.00;101972.06;4168659;28;20021;-77
2021/10/27 02:40:09;;;;;;;9.50;7.00;;;12.20;99.90;;;11.60;100.00;101958.41;4167655;28;20401;-77
2021/10/27 02:42:10;;;;;;;10.13;6.63;;;12.20;99.90;;;11.56;100.00;101962.28;4165146;28;20105;-77
2021/10/27 02:44:11;;;;;;;8.82;6.88;;;12.20;99.90;;;11.64;100.00;101962.47;4167407;28;20167;-78
2021/10/27 02:46:13;;;;;;;8.82;6.35;;;12.10;99.90;;;11.64;100.00;101967.75;4158555;28;20048;-78
2021/10/27 02:48:14;;;;;;;7.43;5.78;;;12.10;99.90;;;11.57;100.00;101966.59;4168434;28;20037;-78
2021/10/27 02:50:16;;;;;;;7.90;6.45;;;12.20;99.90;;;11.54;100.00;101964.22;4167260;28;20068;-78
2021/10/27 02:52:17;;;;;;;8.05;6.70;;;12.10;99.90;;;11.54;100.00;101961.59;4166960;28;20069;-78
2021/10/27 02:54:18;;;;;;;8.98;6.18;;;12.10;99.90;;;11.54;100.00;101966.88;4168654;28;20397;-77
2021/10/27 02:56:19;;;;;;;7.72;5.43;;;12.10;99.90;;;11.46;100.00;101950.84;4168532;28;20026;-77
2021/10/27 02:58:20;;;;;;;8.30;6.00;;;12.10;99.90;;;11.62;100.00;101964.38;4168316;28;20018;-77
2021/10/27 03:00:21;;;;;;;8.32;6.57;;;12.10;99.90;;;11.55;100.00;101960.63;4168368;28;20026;-78
2021/10/27 03:02:22;;;;;;;8.88;5.53;;;12.10;99.90;;;11.49;100.00;101943.50;4162010;28;20053;-77
2021/10/27 03:04:23;;;;;;;11.15;6.13;;;12.10;99.90;;;11.48;100.00;101941.81;4162067;28;20036;-78
2021/10/27 03:06:23;;;;;;;6.88;5.43;;;12.10;99.90;;;11.46;100.00;101948.19;4168396;28;20030;-78
2021/10/27 03:08:24;;;;;;;6.35;5.28;;;12.00;99.90;;;11.58;100.00;101952.44;4169758;28;20417;-78
2021/10/27 03:10:26;;;;;;;10.05;5.38;;;12.10;99.90;;;11.54;100.00;101945.72;4157489;28;20033;-78
2021/10/27 03:12:27;;;;;;;6.85;5.20;;;12.10;99.90;;;11.53;100.00;101949.31;4160479;28;20026;-78
2021/10/27 03:14:28;;;;;;;10.05;4.97;;;12.00;99.90;;;11.59;100.00;101954.09;4165000;28;20056;-78
2021/10/27 03:16:29;;;;;;;5.90;4.80;;;12.00;99.90;;;11.47;100.00;101939.28;4167564;28;20037;-78
2021/10/27 03:18:30;;;;;;;6.85;4.80;;;12.10;99.90;;;11.52;100.00;101948.53;4158400;28;20026;-78
2021/10/27 03:20:31;;;;;;;5.22;4.38;;;12.10;99.90;;;11.47;100.00;101955.13;4168374;28;20481;-78
2021/10/27 03:22:33;;;;;;;10.05;5.07;;;12.00;99.90;;;11.39;100.00;101952.34;4168331;28;20373;-79
2021/10/27 03:24:34;;;;;;;6.97;4.93;;;12.00;99.90;;;11.56;100.00;101955.19;4167102;28;20033;-79
2021/10/27 03:26:35;;;;;;;9.07;4.82;;;12.00;99.90;;;11.55;100.00;101956.19;4167051;28;20030;-78
2021/10/27 03:28:36;;;;;;;7.45;4.60;;;12.00;99.90;;;11.62;100.00;101953.81;4161476;28;20044;-78
2021/10/27 03:30:37;;;;;;;38.03;5.70;;;12.00;99.90;;;11.68;100.00;101963.84;4168214;28;20025;-78
2021/10/27 03:32:38;;;;;;;17.23;5.43;;;12.10;99.90;;;11.55;100.00;101960.63;4168210;28;20052;-78
2021/10/27 03:34:39;;;;;;;14.93;4.28;;;12.00;99.90;;;11.51;100.00;101964.50;4168328;28;20105;-78
2021/10/27 03:36:41;;;;;;;9.32;3.97;;;12.00;99.90;;;11.35;100.00;101961.50;4167124;28;20048;-78
2021/10/27 03:38:42;;;;;;;6.55;4.13;;;11.90;99.90;;;11.31;100.00;101960.09;4163418;28;20416;-79
2021/10/27 03:40:45;;;;;;;25.20;4.40;;;11.90;99.90;;;11.30;100.00;101953.97;4168110;28;20026;-78
2021/10/27 03:42:46;;;;;;;22.45;4.90;;;11.90;99.90;;;11.25;100.00;101958.81;4168038;28;20104;-78
2021/10/27 03:44:47;;;;;;;31.40;5.10;;;11.90;99.90;;;11.20;100.00;101954.88;4168222;28;20116;-79
2021/10/27 03:46:49;;;;;;;6.70;4.40;;;11.80;99.90;;;11.17;100.00;101952.50;4168171;28;20034;-78
2021/10/27 03:48:50;;;;;;;14.55;4.53;;;11.80;99.90;;;11.23;100.00;101952.00;4168011;28;20039;-78
2021/10/27 03:50:52;;;;;;;9.43;3.60;;;11.80;99.90;;;11.22;100.00;101953.78;4168300;28;20034;-78
2021/10/27 03:52:53;;;;;;;11.07;3.45;;;11.80;99.90;;;11.15;100.00;101938.56;4166628;28;20536;-78
2021/10/27 03:54:53;;;;;;;13.43;4.18;;;11.80;99.90;;;11.20;100.00;101936.41;4164049;28;20061;-78
2021/10/27 03:56:54;;;;;;;16.60;4.32;;;11.70;99.90;;;11.26;100.00;101949.09;4166851;28;20026;-78
2021/10/27 03:58:55;;;;;;;4.88;3.97;;;11.80;99.90;;;11.25;100.00;101950.03;4155769;28;20022;-79
2021/10/27 04:00:56;;;;;;;5.40;3.42;;;11.70;99.90;;;11.24;100.00;101951.00;4170445;28;20057;-78
2021/10/27 04:02:57;;;;;;;29.73;5.15;;;11.80;99.90;;;11.21;100.00;101949.47;4169725;28;20125;-78
2021/10/27 04:04:58;;;;;;;10.57;4.03;;;11.80;99.90;;;11.24;100.00;101943.06;4168251;28;20571;-79
2021/10/27 04:07:00;;;;;;;12.40;3.50;;;11.80;99.90;;;11.23;100.00;101949.34;4169997;28;20057;-78
2021/10/27 04:09:01;;;;;;;10.80;3.95;;;11.80;99.90;;;11.23;100.00;101944.06;4169696;28;20036;-78
2021/10/27 04:11:02;;;;;;;6.53;3.53;;;11.80;99.90;;;11.21;100.00;101944.19;4186338;28;20029;-78
2021/10/27 04:13:03;;;;;;;6.13;3.70;;;11.80;99.90;;;11.26;100.00;101947.25;4167428;28;20139;-78
2021/10/27 04:15:08;;;;;;;8.80;4.00;;;11.80;99.90;;;11.27;100.00;101948.94;4157977;28;20156;-78
2021/10/27 04:17:09;;;;;;;12.85;4.13;;;11.80;99.90;;;11.26;100.00;101949.09;4161366;28;20028;-79
2021/10/27 04:19:09;;;;;;;14.15;4.18;;;11.80;99.90;;;11.28;100.00;101958.56;4169692;28;20449;-78
2021/10/27 04:21:11;;;;;;;6.05;3.55;;;11.80;99.90;;;11.29;100.00;101959.38;4167478;28;20026;-78
2021/10/27 04:23:12;;;;;;;15.40;4.22;;;11.80;99.90;;;11.28;100.00;101963.84;4202773;28;20104;-78
2021/10/27 04:25:13;;;;;;;16.65;4.63;;;11.80;99.90;;;11.25;100.00;101956.16;4169603;28;20041;-79
2021/10/27 04:27:14;;;;;;;5.20;3.90;;;11.80;99.90;;;11.31;100.00;101954.81;4163780;28;20029;-79
2021/10/27 04:29:15;;;;;;;10.20;4.30;;;11.80;99.90;;;11.34;100.00;101959.81;4167365;28;20088;-79
2021/10/27 04:31:16;;;;;;;6.05;4.05;;;11.80;99.90;;;11.22;100.00;101943.22;4169681;28;20033;-79
2021/10/27 04:33:23;;;;;;;5.72;3.78;;;11.80;99.90;;;11.31;100.00;101954.81;4170607;28;20029;-79
2021/10/27 04:35:25;;;;;;;5.35;3.80;;;11.80;99.90;;;11.27;100.00;101948.94;4169407;28;20025;-79
2021/10/27 04:37:27;;;;;;;5.00;3.90;;;11.90;99.90;;;11.32;100.00;101953.84;4167636;28;20055;-78
2021/10/27 04:39:28;;;;;;;4.95;3.55;;;11.80;99.90;;;11.28;100.00;101945.34;4169347;28;20061;-79
2021/10/27 04:41:29;;;;;;;5.65;3.53;;;11.90;99.90;;;11.30;100.00;101963.69;4161955;28;20025;-79
2021/10/27 04:43:30;;;;;;;4.05;2.88;;;11.90;99.90;;;11.25;100.00;101961.44;4169062;28;20524;-79
2021/10/27 04:45:31;;;;;;;7.78;4.03;;;11.90;99.90;;;11.27;100.00;101954.22;4150470;28;20181;-79
2021/10/27 04:47:32;;;;;;;5.53;3.55;;;11.80;99.90;;;11.23;100.00;101946.69;4158325;28;20033;-79
2021/10/27 04:49:33;;;;;;;12.70;4.43;;;11.90;99.90;;;11.23;100.00;101952.00;4169233;28;20044;-79
2021/10/27 04:51:34;;;;;;;13.27;4.07;;;11.90;99.90;;;11.27;100.00;101948.09;4164256;28;20029;-78
2021/10/27 04:53:35;;;;;;;10.95;4.00;;;11.90;99.90;;;11.27;100.00;101950.75;4170314;28;20033;-78
2021/10/27 04:55:36;;;;;;;5.20;3.78;;;11.80;99.90;;;11.31;100.00;101949.53;4170336;28;20017;-79
2021/10/27 04:57:37;;;;;;;4.13;3.58;;;11.90;99.90;;;11.31;100.00;101950.34;4170040;28;20117;-79
2021/10/27 04:59:44;;;;;;;15.45;4.47;;;11.90;99.90;;;11.28;100.00;101960.34;4168897;28;20061;-79
2021/10/27 05:01:49;;;;;;;20.00;4.00;;;11.90;99.90;;;11.22;100.00;101955.59;4170237;28;20033;-79
2021/10/27 05:03:49;;;;;;;6.90;3.72;;;11.90;99.90;;;11.30;100.00;101963.69;4170164;28;20100;-79
2021/10/27 05:05:54;;;;;;;6.60;4.10;;;11.90;99.90;;;11.30;100.00;101961.03;4170121;28;20037;-79
2021/10/27 05:07:59;;;;;;;5.03;3.75;;;11.90;99.90;;;11.28;100.00;101953.25;4169956;28;20028;-78
2021/10/27 05:10:00;;;;;;;25.40;5.13;;;11.90;99.90;;;11.34;100.00;101955.38;4168296;28;20037;-79
2021/10/27 05:12:04;;;;;;;9.20;4.20;;;11.90;99.90;;;11.32;100.00;101946.72;4185410;28;20029;-79
2021/10/27 05:14:05;;;;;;;29.63;5.25;;;11.90;99.90;;;11.31;100.00;101952.16;4163048;28;20064;-79
2021/10/27 05:16:06;;;;;;;4.50;3.95;;;11.90;99.90;;;11.31;100.00;101963.56;4169818;28;20122;-79
2021/10/27 05:18:07;;;;;;;4.35;3.90;;;11.90;99.90;;;11.36;100.00;101964.00;4169868;28;20029;-79
2021/10/27 05:20:08;;;;;;;7.15;3.53;;;11.90;99.90;;;11.24;100.00;101940.44;4170019;28;20109;-78
2021/10/27 05:22:11;;;;;;;16.27;4.47;;;11.80;99.90;;;11.31;100.00;101955.66;4168558;28;20018;-78
2021/10/27 05:24:12;;;;;;;12.57;4.68;;;11.80;99.90;;;11.24;100.00;101945.72;4169746;28;20030;-78
2021/10/27 05:26:13;;;;;;;6.25;4.53;;;11.90;99.90;;;11.25;100.00;101952.69;4169775;28;20026;-78
2021/10/27 05:28:14;;;;;;;15.38;5.50;;;11.80;99.90;;;11.28;100.00;101947.13;4168398;28;20021;-78
2021/10/27 05:30:15;;;;;;;6.75;4.78;;;11.80;99.90;;;11.32;100.00;101956.50;4168128;28;20021;-79
2021/10/27 05:32:17;;;;;;;7.80;4.63;;;11.80;99.90;;;11.37;100.00;101954.28;4168312;28;20025;-78
2021/10/27 05:34:18;;;;;;;5.85;4.55;;;11.80;99.90;;;11.28;100.00;101945.34;4169427;28;20032;-78
2021/10/27 05:36:19;;;;;;;7.63;4.80;;;11.80;99.90;;;11.27;100.00;101948.94;4169675;28;20046;-79
2021/10/27 05:38:20;;;;;;;5.18;4.53;;;11.80;99.90;;;11.27;100.00;101953.38;4168401;28;20025;-79
2021/10/27 05:40:23;;;;;;;17.25;5.45;;;11.90;99.90;;;11.21;100.00;101959.19;4163915;28;20048;-78
2021/10/27 05:42:27;;;;;;;12.25;5.10;;;11.80;99.90;;;11.25;100.00;101952.69;4169075;28;20025;-78
2021/10/27 05:44:28;;;;;;;11.15;5.30;;;11.80;99.90;;;11.32;100.00;101949.38;4169527;28;20404;-79
2021/10/27 05:46:29;;;;;;;11.45;5.80;;;11.80;99.90;;;11.38;100.00;101953.31;4169376;28;20024;-78
2021/10/27 05:48:36;;;;;;;6.05;4.38;;;11.80;99.90;;;11.30;100.00;101955.75;4168069;28;20029;-78
2021/10/27 05:50:40;;;;;;;6.13;4.65;;;11.80;99.90;;;11.27;100.00;101948.09;4168094;28;20179;-78
2021/10/27 05:55:27;;;;;;;13.15;5.93;;;11.80;99.90;;;11.21;100.00;101927.50;4169169;28;20087;-78
2021/10/27 05:57:33;;;;;;;7.38;4.93;;;11.90;99.90;;;11.27;100.00;101933.09;4158855;28;20036;-77
2021/10/27 05:59:34;;;;;;;11.80;5.75;;;11.80;99.90;;;11.24;100.00;101933.34;4169058;28;20032;-78
2021/10/27 06:01:35;;;;;;;14.13;4.95;;;11.80;99.90;;;11.15;100.00;101928.84;4169239;28;20044;-78
2021/10/27 06:03:37;;;;;;;5.55;4.43;;;11.80;99.90;;;11.32;100.00;101935.34;4168129;28;20025;-78
2021/10/27 06:05:38;;;;;;;6.88;5.35;;;11.90;99.90;;;11.15;100.00;101941.22;4159540;28;20072;-78
2021/10/27 06:07:39;;;;;;;6.57;4.90;;;11.80;99.90;;;11.25;100.00;101934.19;4167936;28;20105;-78
2021/10/27 06:09:40;;;;;;;10.25;4.40;;;11.80;99.90;;;11.32;100.00;101938.00;4168077;28;20049;-79
2021/10/27 06:11:43;;;;;;;7.13;4.50;;;11.80;99.90;;;11.31;100.00;101936.31;4168886;28;20026;-79
2021/10/27 06:13:46;;;;;;;5.80;4.55;;;11.80;99.90;;;11.28;100.00;101928.66;4168685;28;20044;-79
2021/10/27 06:15:47;;;;;;;6.15;4.30;;;11.80;99.90;;;11.35;100.00;101932.44;4167778;28;20435;-78
2021/10/27 06:17:49;;;;;;;4.55;4.10;;;11.80;99.90;;;11.23;100.00;101928.22;4150883;28;20065;-79
2021/10/27 06:19:54;;;;;;;4.72;3.75;;;11.80;99.90;;;11.18;100.00;101933.03;4169089;28;20026;-79
2021/10/27 06:21:55;;;;;;;10.32;4.70;;;11.80;99.90;;;11.15;100.00;101933.28;4167705;28;20025;-78
2021/10/27 06:23:57;;;;;;;4.05;3.50;;;11.80;99.90;;;11.25;100.00;101931.56;4167199;28;20562;-80
2021/10/27 06:25:59;;;;;;;6.43;4.10;;;11.80;99.90;;;11.21;100.00;101935.41;4168685;28;20029;-80
2021/10/27 06:28:11;;;;;;;5.72;4.43;;;11.80;99.90;;;11.19;100.00;101929.44;4167659;28;20545;-80
2021/10/27 06:36:29;;;;;;;7.15;4.32;;;11.70;99.90;;;11.19;100.00;101934.72;4168790;28;20032;-78
2021/10/27 06:47:30;;;;;;;4.55;2.88;;;11.80;99.90;;;11.19;100.00;101943.47;4169341;28;20037;-81
2021/10/27 06:49:32;;;;;;;3.60;3.15;;;11.70;99.90;;;11.18;100.00;101939.16;4169634;28;20022;-81
2021/10/27 06:51:34;;;;;;;5.53;3.40;;;11.80;99.90;;;11.23;100.00;101944.06;4169078;28;20058;-83
2021/10/27 06:53:36;;;;;;;3.58;3.20;;;11.80;99.90;;;11.18;100.00;101946.25;4168038;28;20052;-82
2021/10/27 06:55:39;;;;;;;3.40;3.00;;;11.70;99.90;;;11.34;100.00;101949.25;4169600;28;20469;-81
2021/10/27 06:57:40;;;;;;;6.47;2.70;;;11.80;99.90;;;11.19;100.00;101950.56;4169028;28;20033;-82
2021/10/27 06:59:42;;;;;;;3.53;2.85;;;11.80;99.90;;;11.15;100.00;101947.34;4169251;28;20032;-82
2021/10/27 07:15:33;;;;;;;4.63;3.42;;;11.80;99.90;;;11.23;100.00;101967.84;4169257;28;20045;-79
2021/10/27 07:17:35;;;;;;;3.83;3.40;;;11.80;99.90;;;11.21;100.00;101965.31;4166718;28;20029;-79
2021/10/27 07:19:36;;;;;;;4.13;3.58;;;11.80;99.90;;;11.28;100.00;101977.03;4166555;28;20100;-79
2021/10/27 07:21:39;;;;;;;3.33;3.03;;;11.80;99.90;;;11.20;100.00;101978.66;4167625;28;20029;-79
2021/10/27 07:23:40;;;;;;;4.03;3.30;;;11.80;99.90;;;11.30;100.00;101979.53;4160077;28;20037;-79
2021/10/27 07:25:42;;;;;;;5.68;3.42;;;11.80;99.90;;;11.22;100.00;101987.28;4163398;28;20033;-79
2021/10/27 07:27:45;;;;;;;6.90;3.30;;;11.90;99.90;;;11.27;100.00;101987.72;4168794;28;20025;-79
2021/10/27 07:29:47;;;;;;;5.20;3.50;;;11.80;99.90;;;11.26;100.00;101991.34;4169272;28;20104;-80
2021/10/27 07:31:49;;;;;;;3.55;3.03;;;11.90;99.90;;;11.23;100.00;101994.25;4168107;28;20129;-79
2021/10/27 07:33:58;;;;;;;7.63;3.47;;;11.90;99.90;;;11.15;100.00;101994.88;4165123;28;20108;-80
2021/10/27 07:36:12;;;;;;;4.15;3.05;;;11.90;99.90;;;11.19;100.00;101993.66;4171934;28;20489;-81
2021/10/27 07:40:34;;;;;;;5.93;4.00;;;11.90;99.90;;;11.31;100.00;101995.28;4169863;28;20044;-79
2021/10/27 07:42:38;;;;;;;3.25;2.83;;;12.00;99.90;;;11.31;100.00;101992.63;4172114;28;20029;-79
2021/10/27 07:44:39;;;;;;;3.97;3.22;;;12.00;99.90;;;11.35;100.00;101999.31;4172273;28;20029;-79
2021/10/27 07:46:43;;;;;;;4.60;2.88;;;12.10;99.90;;;11.46;100.00;101995.75;4172267;28;20056;-79
2021/10/27 07:48:44;;;;;;;4.22;3.20;;;12.10;99.90;;;11.47;100.00;101997.41;4172043;28;20092;-81
2021/10/27 07:50:47;;;;;;;3.88;3.00;;;12.10;99.90;;;11.49;100.00;101995.50;4172200;28;20034;-81
2021/10/27 07:52:48;;;;;;;4.03;2.80;;;12.20;99.90;;;11.57;100.00;101998.31;4170745;28;20065;-82
2021/10/27 07:54:49;;;;;;;6.78;2.67;;;12.20;99.90;;;11.58;100.00;102007.94;4167681;28;20025;-78
2021/10/27 07:56:51;;;;;;;8.13;3.45;;;12.20;99.90;;;11.60;100.00;102016.56;4171979;28;20521;-78
2021/10/27 07:58:53;;;;;;;6.05;3.35;;;12.30;99.90;;;11.72;100.00;102012.88;4182161;28;20045;-79
2021/10/27 08:00:57;;;;;;;3.78;3.25;;;12.30;99.90;;;11.73;100.00;102013.72;4164398;28;20400;-78
2021/10/27 08:03:02;;;;;;;5.72;2.90;;;12.40;99.90;;;11.71;100.00;102002.47;4192168;28;20028;-78
2021/10/27 08:05:04;;;;;;;4.60;2.72;;;12.40;99.90;;;11.77;100.00;102005.38;4170821;28;20083;-78
2021/10/27 08:07:05;;;;;;;4.25;3.10;;;12.40;99.90;;;11.90;100.00;102011.28;4170058;28;20021;-77
2021/10/27 08:09:07;;;;;;;4.90;2.67;;;12.50;99.90;;;11.87;100.00;102008.91;4184078;28;20033;-78
2021/10/27 08:11:09;;;;;;;3.47;3.17;;;12.50;99.90;;;11.85;100.00;102013.50;4170145;28;20466;-78
2021/10/27 08:13:10;;;;;;;2.92;2.60;;;12.50;99.90;;;11.82;100.00;102008.50;4170273;28;20080;-78
2021/10/27 08:15:13;;;;;;;6.85;2.97;;;12.50;99.90;;;11.82;100.00;102011.13;4153053;28;20022;-78
2021/10/27 08:17:14;;;;;;;2.70;2.50;;;12.50;99.90;;;11.80;100.00;102012.25;4162382;28;20057;-77
2021/10/27 08:19:15;;;;;;;3.75;3.05;;;12.60;99.90;;;11.92;100.00;102016.44;4166763;28;20025;-78
2021/10/27 08:21:16;;;;;;;2.95;2.65;;;12.60;99.90;;;11.99;100.00;102010.50;4169375;28;20044;-76
2021/10/27 08:23:20;;;;;;;9.85;3.10;;;12.60;99.90;;;11.96;100.00;102012.56;4158669;28;20064;-77
2021/10/27 08:25:34;;;;;;;;;;;12.70;99.90;;;11.95;100.00;102009.06;4171097;28;20055;-77
2021/10/27 08:27:37;;;;;;;3.88;2.70;;;12.70;99.90;;;12.01;100.00;102023.56;4168631;28;19976;-77
2021/10/27 08:29:40;;;;;;;3.92;2.58;;;12.80;99.90;;;12.00;100.00;102022.75;4170409;28;20041;-77
2021/10/27 08:31:42;;;;;;;3.30;2.70;;;12.80;99.90;;;12.04;100.00;102024.13;4169202;28;20028;-77
2021/10/27 08:33:50;;;;;;;3.33;2.60;;;12.80;99.90;;;12.09;100.00;102016.66;4163989;28;20091;-77
2021/10/27 08:35:52;;;;;;;4.35;2.70;;;12.90;99.90;;;12.11;100.00;102022.66;4170111;28;20480;-77
2021/10/27 08:37:53;;;;;;;3.78;2.75;;;13.00;99.90;;;12.17;100.00;102016.81;4169275;28;20018;-78
2021/10/27 08:39:53;;;;;;;3.28;2.95;;;13.00;99.90;;;12.22;100.00;102016.41;4161223;28;20017;-77
2021/10/27 08:41:54;;;;;;;5.15;2.83;;;13.00;99.90;;;12.31;100.00;102010.28;4170157;28;20131;-77
2021/10/27 08:43:55;;;;;;;2.92;2.30;;;13.10;99.90;;;12.34;100.00;102017.97;4169046;28;20026;-77
2021/10/27 08:45:57;;;;;;;3.95;2.67;;;13.10;99.90;;;12.28;100.00;102010.56;4158547;28;20037;-77
2021/10/27 08:47:59;;;;;;;3.80;2.65;;;13.10;99.90;;;12.33;100.00;102016.31;4168965;28;20030;-76
2021/10/27 08:50:01;;;;;;;5.25;2.90;;;13.20;99.90;;;12.39;100.00;102009.63;4164245;28;20036;-77
2021/10/27 08:52:05;;;;;;;4.10;2.55;;;13.20;99.90;;;12.48;100.00;102019.38;4168280;28;20072;-77
2021/10/27 08:54:09;;;;;;;3.20;2.90;;;13.30;99.90;;;12.54;100.00;102005.59;4157704;28;20041;-77